1884 Depression NOT_NAMED (1884261N17088)


IBTrACS version v04r00. Visit IBTrACS website for data access.
Please direct all questions to the IBTrACS Q and A forum

Storm track - Intensity - Wind Radii - Intensity Data - Source Data - All data

Summary Information

Storm ID 1884261N17088
Start Sep 17 00Z
Landfall Sep 20 06Z
Max Intensity 30 kt (Sep 17 03Z)
End Oct 1 03Z
ATCF IDs
Track status Best track data.

Storm track plot

Map of storm track

Intensity plots

Map of storm track

Radial wind information

No radial wind information for this storm


Position and Intensity Table

BASIN ISO_TIME_________ NATURE LAT LON DS824 WIND
degrees north degrees east kts
NI 1884-09-17 00:00:00 TS 17.40 88.30 30
NI 03:00:00 TS 17.39 88.16 30
NI 06:00:00 TS 17.41 87.98 30
NI 09:00:00 TS 17.44 87.81 30
NI 12:00:00 TS 17.48 87.67 30
NI 15:00:00 TS 17.52 87.54 30
NI 18:00:00 TS 17.58 87.44 30
NI 21:00:00 TS 17.63 87.37 30
NI 1884-09-18 00:00:00 TS 17.68 87.32 30
NI 03:00:00 TS 17.70 87.30 30
NI 06:00:00 TS 17.71 87.29 30
NI 09:00:00 TS 17.71 87.29 30
NI 12:00:00 TS 17.70 87.29 30
NI 15:00:00 TS 17.70 87.30 30
NI 18:00:00 TS 17.69 87.33 30
NI 21:00:00 TS 17.68 87.38 30
NI 1884-09-19 00:00:00 TS 17.69 87.35 30
NI 03:00:00 TS 17.72 87.18 30
NI 06:00:00 TS 17.77 86.86 30
NI 09:00:00 TS 17.86 86.46 30
NI 12:00:00 TS 17.95 86.01 30
NI 15:00:00 TS 18.05 85.62 30
NI 18:00:00 TS 18.15 85.25 30
NI 21:00:00 TS 18.26 84.87 30
NI 1884-09-20 00:00:00 TS 18.36 84.54 30
NI 03:00:00 TS 18.43 84.31 30
NI 06:00:00 TS 18.48 84.16 30
NI 09:00:00 TS 18.53 84.04 30
NI 12:00:00 TS 18.58 83.95 30
NI 15:00:00 TS 18.63 83.83 30
NI 18:00:00 TS 18.67 83.68 30
NI 21:00:00 TS 18.70 83.54 30
NI 1884-09-21 00:00:00 TS 18.76 83.38 30
NI 03:00:00 TS 18.87 83.20 30
NI 06:00:00 TS 19.01 83.01 30
NI 09:00:00 TS 19.17 82.82 30
NI 12:00:00 TS 19.32 82.61 30
NI 15:00:00 TS 19.45 82.37 30
NI 18:00:00 TS 19.56 82.14 30
NI 21:00:00 TS 19.65 81.93 30
NI 1884-09-22 00:00:00 TS 19.75 81.71 30
NI 03:00:00 TS 19.85 81.47 30
NI 06:00:00 TS 19.96 81.24 30
NI 09:00:00 TS 20.10 81.02 30
NI 12:00:00 TS 20.24 80.81 30
NI 15:00:00 TS 20.35 80.60 30
NI 18:00:00 TS 20.45 80.39 30
NI 21:00:00 TS 20.57 80.19 30
NI 1884-09-23 00:00:00 TS 20.72 79.99 30
NI 03:00:00 TS 20.89 79.80 30
NI 06:00:00 TS 21.10 79.60 30
NI 09:00:00 TS 21.36 79.42 30
NI 12:00:00 TS 21.65 79.27 30
NI 15:00:00 TS 21.97 79.14 30
NI 18:00:00 TS 22.33 79.04 30
NI 21:00:00 TS 22.71 78.97 30
NI 1884-09-24 00:00:00 TS 23.05 78.92 30
NI 03:00:00 TS 23.27 78.87 30
NI 06:00:00 TS 23.39 78.83 30
NI 09:00:00 TS 23.52 78.81 30
NI 12:00:00 TS 23.65 78.80 30
NI 15:00:00 TS 23.77 78.80 30
NI 18:00:00 TS 23.93 78.80 30
NI 21:00:00 TS 24.11 78.80 30
NI 1884-09-25 00:00:00 TS 24.30 78.80 30
NI 03:00:00 TS 24.50 78.80 30
NI 06:00:00 TS 24.70 78.80 30
NI 09:00:00 TS 24.91 78.80 30
NI 12:00:00 TS 25.11 78.80 30
NI 15:00:00 TS 25.28 78.80 30
NI 18:00:00 TS 25.43 78.80 30
NI 21:00:00 TS 25.58 78.82 30
NI 1884-09-26 00:00:00 TS 25.73 78.87 30
NI 03:00:00 TS 25.90 78.94 30
NI 06:00:00 TS 26.09 79.05 30
NI 09:00:00 TS 26.25 79.22 30
NI 12:00:00 TS 26.36 79.41 30
NI 15:00:00 TS 26.42 79.60 30
NI 18:00:00 TS 26.40 79.80 30
NI 21:00:00 TS 26.31 79.98 30
NI 1884-09-27 00:00:00 TS 26.17 80.13 30
NI 03:00:00 TS 26.02 80.24 30
NI 06:00:00 TS 25.88 80.29 30
NI 09:00:00 TS 25.72 80.33 30
NI 12:00:00 TS 25.57 80.32 30
NI 15:00:00 TS 25.45 80.26 30
NI 18:00:00 TS 25.34 80.17 30
NI 21:00:00 TS 25.24 80.06 30
NI 1884-09-28 00:00:00 TS 25.14 79.96 30
NI 03:00:00 TS 25.05 79.88 30
NI 06:00:00 TS 24.95 79.81 30
NI 09:00:00 TS 24.88 79.73 30
NI 12:00:00 TS 24.83 79.64 30
NI 15:00:00 TS 24.77 79.55 30
NI 18:00:00 TS 24.71 79.47 30
NI 21:00:00 TS 24.67 79.39 30
NI 1884-09-29 00:00:00 TS 24.68 79.27 30
NI 03:00:00 TS 24.73 79.06 30
NI 06:00:00 TS 24.86 78.78 30
NI 09:00:00 TS 25.08 78.54 30
NI 12:00:00 TS 25.36 78.32 30
NI 15:00:00 TS 25.65 78.11 30
NI 18:00:00 TS 25.95 77.97 30
NI 21:00:00 TS 26.31 77.88 30
NI 1884-09-30 00:00:00 TS 26.65 77.83 30
NI 03:00:00 TS 26.91 77.80 30
NI 06:00:00 TS 27.12 77.78 30
NI 09:00:00 TS 27.32 77.74 30
NI 12:00:00 TS 27.51 77.71 30
NI 15:00:00 TS 27.70 77.70 30
NI 18:00:00 TS 27.87 77.69 30
NI 21:00:00 TS 28.03 77.66 30
NI 1884-10-01 00:00:00 TS 28.18 77.62 30
NI 03:00:00 NR 28.30 77.60

Source Information

Agency Information
USA
TOKYO
CMA
HKO
NEWDELHI
REUNION
BOM
NADI
WELLINGTON
DS824 n_ind.dat:80:NOT NAMED
TD9636 cons_worldwide_trop_cyclone_18710101-19891231-004:Line=765
TD9635
NEUMANN
MLC

All available IBTrACS Data

SEASON BASIN SUBBASIN ISO_TIME_________ NATURE LAT LON DIST2LAND LANDFALL IFLAG USA SSHS DS824 LAT DS824 LON DS824 STAGE DS824 WIND TD9636 LAT TD9636 LON TD9636 STAGE STORM SPEED STORM DIR
Year degrees north degrees east km km 1 degrees north degrees east kts degrees north degrees east kts degrees
1884 NI BB 1884-09-17 00:00:00 TS 17.40 88.30 353 347 _________O____ -1 17.40 88.30 TC 30 3 267
1884 NI BB 03:00:00 TS 17.39 88.16 347 336 _________PO___ -1 17.39 88.09 TC 30 17.40 88.30 1 3 271
1884 NI BB 06:00:00 TS 17.41 87.98 336 326 _________OP___ -1 17.40 87.90 TC 30 17.42 88.10 1 3 278
1884 NI BB 09:00:00 TS 17.44 87.81 326 311 _________PP___ -1 17.44 87.74 TC 30 17.44 87.92 1 3 284
1884 NI BB 12:00:00 TS 17.48 87.67 311 302 _________OP___ -1 17.50 87.60 TC 30 17.46 87.75 1 3 288
1884 NI BB 15:00:00 TS 17.52 87.54 302 288 _________PO___ -1 17.55 87.48 TC 30 17.50 87.60 1 2 293
1884 NI BB 18:00:00 TS 17.58 87.44 288 288 _________OP___ -1 17.60 87.40 TC 30 17.55 87.48 1 2 303
1884 NI BB 21:00:00 TS 17.63 87.37 288 274 _________PP___ -1 17.66 87.33 TC 30 17.61 87.40 1 2 311
1884 NI BB 1884-09-18 00:00:00 TS 17.68 87.32 274 274 _________OP___ -1 17.70 87.30 TC 30 17.66 87.34 1 1 317
1884 NI BB 03:00:00 TS 17.70 87.30 274 274 _________PO___ -1 17.71 87.29 TC 30 17.70 87.30 1 0 313
1884 NI BB 06:00:00 TS 17.71 87.29 274 274 _________OP___ -1 17.70 87.30 TC 30 17.71 87.28 1 0 0
1884 NI BB 09:00:00 TS 17.71 87.29 274 274 _________PP___ -1 17.70 87.30 TC 30 17.71 87.28 1 0 0
1884 NI BB 12:00:00 TS 17.70 87.29 274 274 _________OP___ -1 17.70 87.30 TC 30 17.71 87.29 1 0 0
1884 NI BB 15:00:00 TS 17.70 87.30 274 274 _________PO___ -1 17.70 87.30 TC 30 17.70 87.30 1 0 105
1884 NI BB 18:00:00 TS 17.69 87.33 274 274 _________OP___ -1 17.70 87.30 TC 30 17.69 87.36 1 1 101
1884 NI BB 21:00:00 TS 17.68 87.38 277 277 _________PP___ -1 17.69 87.34 TC 30 17.68 87.41 1 0 0
1884 NI BB 1884-09-19 00:00:00 TS 17.69 87.35 277 270 _________OP___ -1 17.70 87.30 TC 30 17.68 87.41 1 2 280
1884 NI BB 03:00:00 TS 17.72 87.18 270 249 _________PO___ -1 17.73 87.07 TC 30 17.70 87.30 1 5 280
1884 NI BB 06:00:00 TS 17.77 86.86 249 222 _________OP___ -1 17.80 86.70 TC 30 17.75 87.03 1 7 281
1884 NI BB 09:00:00 TS 17.86 86.46 222 178 _________PP___ -1 17.89 86.26 TC 30 17.82 86.66 1 8 282
1884 NI BB 12:00:00 TS 17.95 86.01 172 138 _________OP___ -1 18.00 85.80 TC 30 17.91 86.23 1 8 284
1884 NI BB 15:00:00 TS 18.05 85.62 138 107 _________PO___ -1 18.10 85.43 TC 30 18.00 85.80 1 8 285
1884 NI BB 18:00:00 TS 18.15 85.25 99 61 _________OP___ -1 18.20 85.10 TC 30 18.10 85.41 1 7 286
1884 NI BB 21:00:00 TS 18.26 84.87 61 30 _________PP___ -1 18.31 84.72 TC 30 18.21 85.03 1 7 287
1884 NI BB 1884-09-20 00:00:00 TS 18.36 84.54 23 11 _________OP___ -1 18.40 84.40 TC 30 18.31 84.68 1 6 288
1884 NI BB 03:00:00 TS 18.43 84.31 11 0 _________PO___ -1 18.46 84.21 TC 30 18.40 84.40 1 4 289
1884 NI BB 06:00:00 TS 18.48 84.16 0 0 _________OP___ -1 18.50 84.10 TC 30 18.46 84.21 1 3 293
1884 NI BB 09:00:00 TS 18.53 84.04 0 0 _________PP___ -1 18.55 84.00 TC 30 18.51 84.09 1 2 296
1884 NI BB 12:00:00 TS 18.58 83.95 0 0 _________OP___ -1 18.60 83.90 TC 30 18.56 84.00 1 2 294
1884 NI BB 15:00:00 TS 18.63 83.83 0 0 _________PO___ -1 18.65 83.76 TC 30 18.60 83.90 1 3 289
1884 NI BB 18:00:00 TS 18.67 83.68 0 0 _________OP___ -1 18.70 83.60 TC 30 18.63 83.77 1 3 286
1884 NI BB 21:00:00 TS 18.70 83.54 0 0 _________PP___ -1 18.73 83.46 TC 30 18.67 83.62 1 3 288
1884 NI BB 1884-09-21 00:00:00 TS 18.76 83.38 0 0 _________OP___ -1 18.80 83.30 TC 30 18.72 83.47 1 4 297
1884 NI BB 03:00:00 TS 18.87 83.20 0 0 _________PO___ -1 18.94 83.11 TC 30 18.80 83.30 1 4 306
1884 NI BB 06:00:00 TS 19.01 83.01 0 0 _________OP___ -1 19.10 82.90 TC 30 18.93 83.12 1 5 310
1884 NI BB 09:00:00 TS 19.17 82.82 0 0 _________PP___ -1 19.26 82.71 TC 30 19.08 82.92 1 5 309
1884 NI BB 12:00:00 TS 19.32 82.61 0 0 _________OP___ -1 19.40 82.50 TC 30 19.25 82.72 1 5 304
1884 NI BB 15:00:00 TS 19.45 82.37 0 0 _________PO___ -1 19.51 82.25 TC 30 19.40 82.50 1 5 298
1884 NI BB 18:00:00 TS 19.56 82.14 0 0 _________OP___ -1 19.60 82.00 TC 30 19.51 82.28 1 5 295
1884 NI BB 21:00:00 TS 19.65 81.93 0 0 _________PP___ -1 19.70 81.80 TC 30 19.61 82.06 1 4 296
1884 NI BB 1884-09-22 00:00:00 TS 19.75 81.71 0 0 _________OP___ -1 19.80 81.60 TC 30 19.70 81.83 1 5 294
1884 NI BB 03:00:00 TS 19.85 81.47 0 0 _________PO___ -1 19.89 81.35 TC 30 19.80 81.60 1 5 295
1884 NI BB 06:00:00 TS 19.96 81.24 0 0 _________OP___ -1 20.00 81.10 TC 30 19.92 81.37 1 5 300
1884 NI BB 09:00:00 TS 20.10 81.02 0 0 _________PP___ -1 20.15 80.89 TC 30 20.04 81.14 1 5 305
1884 NI BB 12:00:00 TS 20.24 80.81 0 0 _________OP___ -1 20.30 80.70 TC 30 20.17 80.92 1 5 303
1884 NI BB 15:00:00 TS 20.35 80.60 0 0 _________PO___ -1 20.40 80.50 TC 30 20.30 80.70 1 4 299
1884 NI BB 18:00:00 TS 20.45 80.39 0 0 _________OP___ -1 20.50 80.30 TC 30 20.40 80.49 1 4 300
1884 NI BB 21:00:00 TS 20.57 80.19 0 0 _________PP___ -1 20.63 80.10 TC 30 20.51 80.28 1 5 305
1884 NI BB 1884-09-23 00:00:00 TS 20.72 79.99 0 0 _________OP___ -1 20.80 79.90 TC 30 20.64 80.09 1 5 310
1884 NI BB 03:00:00 TS 20.89 79.80 0 0 _________PO___ -1 20.98 79.69 TC 30 20.80 79.90 1 5 316
1884 NI BB 06:00:00 TS 21.10 79.60 0 0 _________OP___ -1 21.20 79.50 TC 30 21.00 79.70 1 6 323
1884 NI BB 09:00:00 TS 21.36 79.42 0 0 _________PP___ -1 21.48 79.33 TC 30 21.23 79.51 1 6 331
1884 NI BB 12:00:00 TS 21.65 79.27 0 0 _________OP___ -1 21.80 79.20 TC 30 21.50 79.34 1 7 337
1884 NI BB 15:00:00 TS 21.97 79.14 0 0 _________PO___ -1 22.14 79.08 TC 30 21.80 79.20 1 7 343
1884 NI BB 18:00:00 TS 22.33 79.04 0 0 _________OP___ -1 22.50 79.00 TC 30 22.16 79.09 1 8 348
1884 NI BB 21:00:00 TS 22.71 78.97 0 0 _________PP___ -1 22.89 78.94 TC 30 22.54 79.00 1 7 351
1884 NI BB 1884-09-24 00:00:00 TS 23.05 78.92 0 0 _________OP___ -1 23.20 78.90 TC 30 22.90 78.94 1 6 350
1884 NI BB 03:00:00 TS 23.27 78.87 0 0 _________PO___ -1 23.33 78.84 TC 30 23.20 78.90 1 4 345
1884 NI BB 06:00:00 TS 23.39 78.83 0 0 _________OP___ -1 23.40 78.80 TC 30 23.38 78.86 1 3 349
1884 NI BB 09:00:00 TS 23.52 78.81 0 0 _________PP___ -1 23.54 78.79 TC 30 23.50 78.83 1 3 0
1884 NI BB 12:00:00 TS 23.65 78.80 0 0 _________OP___ -1 23.70 78.80 TC 30 23.60 78.81 1 3 354
1884 NI BB 15:00:00 TS 23.77 78.80 0 0 _________PO___ -1 23.84 78.80 TC 30 23.70 78.80 1 3 359
1884 NI BB 18:00:00 TS 23.93 78.80 0 0 _________OP___ -1 24.00 78.80 TC 30 23.86 78.79 1 3 0
1884 NI BB 21:00:00 TS 24.11 78.80 0 0 _________PP___ -1 24.19 78.80 TC 30 24.03 78.79 1 4 4
1884 NI BB 1884-09-25 00:00:00 TS 24.30 78.80 0 0 _________OP___ -1 24.40 78.80 TC 30 24.21 78.80 1 4 0
1884 NI BB 03:00:00 TS 24.50 78.80 0 0 _________PO___ -1 24.60 78.80 TC 30 24.40 78.80 1 4 1
1884 NI BB 06:00:00 TS 24.70 78.80 0 0 _________OP___ -1 24.80 78.80 TC 30 24.60 78.80 1 4 0
1884 NI BB 09:00:00 TS 24.91 78.80 0 0 _________PP___ -1 25.01 78.80 TC 30 24.81 78.79 1 4 357
1884 NI BB 12:00:00 TS 25.11 78.80 0 0 _________OP___ -1 25.20 78.80 TC 30 25.01 78.79 1 4 0
1884 NI BB 15:00:00 TS 25.28 78.80 0 0 _________PO___ -1 25.36 78.79 TC 30 25.20 78.80 1 3 0
1884 NI BB 18:00:00 TS 25.43 78.80 0 0 _________OP___ -1 25.50 78.80 TC 30 25.36 78.80 1 3 0
1884 NI BB 21:00:00 TS 25.58 78.82 0 0 _________PP___ -1 25.64 78.84 TC 30 25.51 78.81 1 3 10
1884 NI BB 1884-09-26 00:00:00 TS 25.73 78.87 0 0 _________OP___ -1 25.80 78.90 TC 30 25.66 78.84 1 3 17
1884 NI BB 03:00:00 TS 25.90 78.94 0 0 _________PO___ -1 26.01 78.98 TC 30 25.80 78.90 1 4 25
1884 NI BB 06:00:00 TS 26.09 79.05 0 0 _________OP___ -1 26.20 79.10 TC 30 25.99 79.01 1 4 36
1884 NI BB 09:00:00 TS 26.25 79.22 0 0 _________PP___ -1 26.33 79.28 TC 30 26.17 79.15 1 4 50
1884 NI BB 12:00:00 TS 26.36 79.41 0 0 _________OP___ -1 26.40 79.50 TC 30 26.31 79.32 1 4 64
1884 NI BB 15:00:00 TS 26.42 79.60 0 0 _________PO___ -1 26.44 79.71 TC 30 26.40 79.50 1 3 83
1884 NI BB 18:00:00 TS 26.40 79.80 0 0 _________OP___ -1 26.40 79.90 TC 30 26.40 79.69 1 4 108
1884 NI BB 21:00:00 TS 26.31 79.98 0 0 _________PP___ -1 26.27 80.07 TC 30 26.34 79.89 1 4 128
1884 NI BB 1884-09-27 00:00:00 TS 26.17 80.13 0 0 _________OP___ -1 26.10 80.20 TC 30 26.23 80.06 1 4 140
1884 NI BB 03:00:00 TS 26.02 80.24 0 0 _________PO___ -1 25.95 80.27 TC 30 26.10 80.20 1 3 152
1884 NI BB 06:00:00 TS 25.88 80.29 0 0 _________OP___ -1 25.80 80.30 TC 30 25.96 80.29 1 3 164
1884 NI BB 09:00:00 TS 25.72 80.33 0 0 _________PP___ -1 25.64 80.32 TC 30 25.81 80.33 1 3 175
1884 NI BB 12:00:00 TS 25.57 80.32 0 0 _________OP___ -1 25.50 80.30 TC 30 25.65 80.34 1 3 195
1884 NI BB 15:00:00 TS 25.45 80.26 0 0 _________PO___ -1 25.39 80.21 TC 30 25.50 80.30 1 3 211
1884 NI BB 18:00:00 TS 25.34 80.17 0 0 _________OP___ -1 25.30 80.10 TC 30 25.38 80.23 1 3 220
1884 NI BB 21:00:00 TS 25.24 80.06 0 0 _________PP___ -1 25.20 79.99 TC 30 25.28 80.13 1 3 224
1884 NI BB 1884-09-28 00:00:00 TS 25.14 79.96 0 0 _________OP___ -1 25.10 79.90 TC 30 25.18 80.01 1 3 221
1884 NI BB 03:00:00 TS 25.05 79.88 0 0 _________PO___ -1 24.99 79.85 TC 30 25.10 79.90 1 2 214
1884 NI BB 06:00:00 TS 24.95 79.81 0 0 _________OP___ -1 24.90 79.80 TC 30 25.01 79.82 1 2 220
1884 NI BB 09:00:00 TS 24.88 79.73 0 0 _________PP___ -1 24.84 79.71 TC 30 24.93 79.75 1 2 231
1884 NI BB 12:00:00 TS 24.83 79.64 0 0 _________OP___ -1 24.80 79.60 TC 30 24.86 79.68 1 2 235
1884 NI BB 15:00:00 TS 24.77 79.55 0 0 _________PO___ -1 24.74 79.50 TC 30 24.80 79.60 1 2 234
1884 NI BB 18:00:00 TS 24.71 79.47 0 0 _________OP___ -1 24.70 79.40 TC 30 24.72 79.53 1 2 235
1884 NI BB 21:00:00 TS 24.67 79.39 0 0 _________PP___ -1 24.68 79.33 TC 30 24.67 79.45 1 2 259
1884 NI BB 1884-09-29 00:00:00 TS 24.68 79.27 0 0 _________OP___ -1 24.70 79.20 TC 30 24.65 79.35 1 3 280
1884 NI BB 03:00:00 TS 24.73 79.06 0 0 _________PO___ -1 24.76 78.91 TC 30 24.70 79.20 1 5 292
1884 NI BB 06:00:00 TS 24.86 78.78 0 0 _________OP___ -1 24.90 78.60 TC 30 24.82 78.97 1 6 307
1884 NI BB 09:00:00 TS 25.08 78.54 0 0 _________PP___ -1 25.17 78.38 TC 30 25.00 78.70 1 7 320
1884 NI BB 12:00:00 TS 25.36 78.32 0 0 _________OP___ -1 25.50 78.20 TC 30 25.23 78.43 1 7 326
1884 NI BB 15:00:00 TS 25.65 78.11 0 0 _________PO___ -1 25.79 78.03 TC 30 25.50 78.20 1 7 332
1884 NI AS 18:00:00 TS 25.95 77.97 0 0 _________OP___ -1 26.10 77.90 TC 30 25.81 78.04 1 7 342
1884 NI AS 21:00:00 TS 26.31 77.88 0 0 _________PP___ -1 26.46 77.83 TC 30 26.15 77.93 1 7 349
1884 NI AS 1884-09-30 00:00:00 TS 26.65 77.83 0 0 _________OP___ -1 26.80 77.80 TC 30 26.49 77.85 1 6 353
1884 NI AS 03:00:00 TS 26.91 77.80 0 0 _________PO___ -1 27.02 77.80 TC 30 26.80 77.80 1 5 355
1884 NI AS 06:00:00 TS 27.12 77.78 0 0 _________OP___ -1 27.20 77.80 TC 30 27.04 77.75 1 4 352
1884 NI AS 09:00:00 TS 27.32 77.74 0 0 _________PP___ -1 27.40 77.75 TC 30 27.24 77.73 1 4 352
1884 NI AS 12:00:00 TS 27.51 77.71 0 0 _________OP___ -1 27.60 77.70 TC 30 27.43 77.71 1 4 354
1884 NI AS 15:00:00 TS 27.70 77.70 0 0 _________PO___ -1 27.81 77.70 TC 30 27.60 77.70 1 4 0
1884 NI AS 18:00:00 TS 27.87 77.69 0 0 _________OP___ -1 28.00 77.70 TC 30 27.77 77.68 1 3 353
1884 NI AS 21:00:00 TS 28.03 77.66 0 0 _________PP___ -1 28.16 77.66 TC 30 27.95 77.66 1 3 350
1884 NI AS 1884-10-01 00:00:00 TS 28.18 77.62 0 0 _________OP___ -1 28.30 77.60 TC 30 28.12 77.63 1 3 347
1884 NI AS 03:00:00 NR 28.30 77.60 0 __________O___ -1 TC 28.30 77.60 1 2 353